sensor_id;sensor_type;location;lat;lon;timestamp;P1;durP1;ratioP1;P2;durP2;ratioP2
49464;SDS011;35358;49.342;8.802;2022-11-06T00:00:39;13.05;;;10.13;;
49464;SDS011;35358;49.342;8.802;2022-11-06T00:03:07;15.00;;;9.57;;
49464;SDS011;35358;49.342;8.802;2022-11-06T00:05:33;17.75;;;11.20;;
49464;SDS011;35358;49.342;8.802;2022-11-06T00:08:32;16.52;;;10.43;;
49464;SDS011;35358;49.342;8.802;2022-11-06T00:11:09;12.52;;;8.63;;
49464;SDS011;35358;49.342;8.802;2022-11-06T00:13:36;14.85;;;10.60;;
49464;SDS011;35358;49.342;8.802;2022-11-06T00:16:06;13.88;;;10.55;;
49464;SDS011;35358;49.342;8.802;2022-11-06T00:18:34;14.40;;;9.93;;
49464;SDS011;35358;49.342;8.802;2022-11-06T00:21:07;18.92;;;10.88;;
49464;SDS011;35358;49.342;8.802;2022-11-06T00:23:36;19.08;;;11.25;;
49464;SDS011;35358;49.342;8.802;2022-11-06T00:26:10;16.02;;;10.10;;
49464;SDS011;35358;49.342;8.802;2022-11-06T00:28:37;16.65;;;10.45;;
49464;SDS011;35358;49.342;8.802;2022-11-06T00:31:06;27.77;;;14.98;;
49464;SDS011;35358;49.342;8.802;2022-11-06T00:33:37;27.35;;;12.90;;
49464;SDS011;35358;49.342;8.802;2022-11-06T00:36:04;29.48;;;11.07;;
49464;SDS011;35358;49.342;8.802;2022-11-06T00:38:34;82.60;;;14.23;;
49464;SDS011;35358;49.342;8.802;2022-11-06T00:41:03;24.77;;;10.05;;
49464;SDS011;35358;49.342;8.802;2022-11-06T00:43:31;11.98;;;8.93;;
49464;SDS011;35358;49.342;8.802;2022-11-06T00:46:03;11.77;;;8.60;;
49464;SDS011;35358;49.342;8.802;2022-11-06T00:48:31;13.32;;;8.65;;
49464;SDS011;35358;49.342;8.802;2022-11-06T00:53:29;19.90;;;10.82;;
49464;SDS011;35358;49.342;8.802;2022-11-06T00:56:02;29.77;;;11.30;;
49464;SDS011;35358;49.342;8.802;2022-11-06T00:58:36;16.77;;;10.13;;
49464;SDS011;35358;49.342;8.802;2022-11-06T01:01:13;19.10;;;10.35;;
49464;SDS011;35358;49.342;8.802;2022-11-06T01:03:40;16.38;;;10.77;;
49464;SDS011;35358;49.342;8.802;2022-11-06T01:06:17;20.65;;;11.07;;
49464;SDS011;35358;49.342;8.802;2022-11-06T01:08:44;13.15;;;9.45;;
49464;SDS011;35358;49.342;8.802;2022-11-06T01:13:40;53.63;;;10.77;;
49464;SDS011;35358;49.342;8.802;2022-11-06T01:16:07;44.42;;;10.40;;
49464;SDS011;35358;49.342;8.802;2022-11-06T01:18:35;107.70;;;12.65;;
49464;SDS011;35358;49.342;8.802;2022-11-06T01:21:03;140.52;;;13.23;;
49464;SDS011;35358;49.342;8.802;2022-11-06T01:23:33;102.88;;;12.38;;
49464;SDS011;35358;49.342;8.802;2022-11-06T01:25:59;119.82;;;11.57;;
49464;SDS011;35358;49.342;8.802;2022-11-06T01:28:27;104.97;;;15.45;;
49464;SDS011;35358;49.342;8.802;2022-11-06T01:30:53;56.30;;;9.90;;
49464;SDS011;35358;49.342;8.802;2022-11-06T01:33:21;61.72;;;10.27;;
49464;SDS011;35358;49.342;8.802;2022-11-06T01:35:50;135.38;;;12.15;;
49464;SDS011;35358;49.342;8.802;2022-11-06T01:38:20;39.15;;;9.20;;
49464;SDS011;35358;49.342;8.802;2022-11-06T01:40:46;79.65;;;10.45;;
49464;SDS011;35358;49.342;8.802;2022-11-06T01:43:13;73.05;;;9.27;;
49464;SDS011;35358;49.342;8.802;2022-11-06T01:45:50;86.72;;;9.25;;
49464;SDS011;35358;49.342;8.802;2022-11-06T01:48:17;51.33;;;8.75;;
49464;SDS011;35358;49.342;8.802;2022-11-06T01:50:51;46.97;;;7.75;;
49464;SDS011;35358;49.342;8.802;2022-11-06T01:53:20;85.28;;;9.10;;
49464;SDS011;35358;49.342;8.802;2022-11-06T01:55:51;41.45;;;6.82;;
49464;SDS011;35358;49.342;8.802;2022-11-06T01:58:23;31.45;;;7.30;;
49464;SDS011;35358;49.342;8.802;2022-11-06T02:00:54;55.20;;;8.10;;
49464;SDS011;35358;49.342;8.802;2022-11-06T02:03:22;73.30;;;9.43;;
49464;SDS011;35358;49.342;8.802;2022-11-06T02:05:50;68.93;;;8.38;;
49464;SDS011;35358;49.342;8.802;2022-11-06T02:08:19;60.55;;;8.27;;
49464;SDS011;35358;49.342;8.802;2022-11-06T02:10:45;49.40;;;8.02;;
49464;SDS011;35358;49.342;8.802;2022-11-06T02:16:02;35.45;;;8.00;;
49464;SDS011;35358;49.342;8.802;2022-11-06T02:35:35;54.33;;;8.55;;
49464;SDS011;35358;49.342;8.802;2022-11-06T02:38:06;30.55;;;6.70;;
49464;SDS011;35358;49.342;8.802;2022-11-06T02:40:38;18.42;;;6.15;;
49464;SDS011;35358;49.342;8.802;2022-11-06T02:43:09;24.75;;;8.55;;
49464;SDS011;35358;49.342;8.802;2022-11-06T02:45:37;54.53;;;8.48;;
49464;SDS011;35358;49.342;8.802;2022-11-06T02:48:17;40.67;;;8.23;;
49464;SDS011;35358;49.342;8.802;2022-11-06T02:50:50;23.60;;;6.65;;
49464;SDS011;35358;49.342;8.802;2022-11-06T02:53:19;26.45;;;7.20;;
49464;SDS011;35358;49.342;8.802;2022-11-06T02:55:52;20.95;;;6.65;;
49464;SDS011;35358;49.342;8.802;2022-11-06T02:58:30;22.08;;;6.40;;
49464;SDS011;35358;49.342;8.802;2022-11-06T03:01:20;30.17;;;6.60;;
49464;SDS011;35358;49.342;8.802;2022-11-06T03:03:51;11.70;;;6.35;;
49464;SDS011;35358;49.342;8.802;2022-11-06T03:09:17;10.70;;;6.28;;
49464;SDS011;35358;49.342;8.802;2022-11-06T03:11:53;9.93;;;5.70;;
49464;SDS011;35358;49.342;8.802;2022-11-06T03:14:53;8.75;;;5.55;;
49464;SDS011;35358;49.342;8.802;2022-11-06T03:17:30;12.27;;;6.63;;
49464;SDS011;35358;49.342;8.802;2022-11-06T03:20:20;8.85;;;5.88;;
49464;SDS011;35358;49.342;8.802;2022-11-06T03:22:53;12.88;;;6.15;;
49464;SDS011;35358;49.342;8.802;2022-11-06T03:25:28;12.15;;;6.13;;
49464;SDS011;35358;49.342;8.802;2022-11-06T03:28:03;21.85;;;5.68;;
49464;SDS011;35358;49.342;8.802;2022-11-06T03:30:41;14.80;;;6.60;;
49464;SDS011;35358;49.342;8.802;2022-11-06T03:33:14;43.20;;;6.82;;
49464;SDS011;35358;49.342;8.802;2022-11-06T03:35:42;30.52;;;6.20;;
49464;SDS011;35358;49.342;8.802;2022-11-06T03:38:22;10.77;;;5.78;;
49464;SDS011;35358;49.342;8.802;2022-11-06T03:40:57;32.08;;;7.38;;
49464;SDS011;35358;49.342;8.802;2022-11-06T03:43:27;49.08;;;6.50;;
49464;SDS011;35358;49.342;8.802;2022-11-06T03:45:58;59.63;;;7.28;;
49464;SDS011;35358;49.342;8.802;2022-11-06T03:48:29;58.95;;;7.10;;
49464;SDS011;35358;49.342;8.802;2022-11-06T03:51:03;17.42;;;5.43;;
49464;SDS011;35358;49.342;8.802;2022-11-06T03:53:43;10.80;;;6.25;;
49464;SDS011;35358;49.342;8.802;2022-11-06T03:56:17;8.50;;;5.82;;
49464;SDS011;35358;49.342;8.802;2022-11-06T03:58:52;9.57;;;5.35;;
49464;SDS011;35358;49.342;8.802;2022-11-06T04:01:22;16.08;;;5.55;;
49464;SDS011;35358;49.342;8.802;2022-11-06T04:03:55;29.67;;;6.03;;
49464;SDS011;35358;49.342;8.802;2022-11-06T04:09:13;7.50;;;5.33;;
49464;SDS011;35358;49.342;8.802;2022-11-06T04:12:02;5.45;;;4.28;;
49464;SDS011;35358;49.342;8.802;2022-11-06T04:14:50;37.20;;;5.80;;
49464;SDS011;35358;49.342;8.802;2022-11-06T04:17:21;13.48;;;4.93;;
49464;SDS011;35358;49.342;8.802;2022-11-06T04:19:53;10.23;;;5.43;;
49464;SDS011;35358;49.342;8.802;2022-11-06T04:30:17;11.57;;;4.57;;
49464;SDS011;35358;49.342;8.802;2022-11-06T04:38:37;14.75;;;6.32;;
49464;SDS011;35358;49.342;8.802;2022-11-06T04:41:11;10.73;;;6.80;;
49464;SDS011;35358;49.342;8.802;2022-11-06T04:43:45;15.77;;;6.35;;
49464;SDS011;35358;49.342;8.802;2022-11-06T04:46:21;40.38;;;7.90;;
49464;SDS011;35358;49.342;8.802;2022-11-06T04:48:52;54.10;;;9.13;;
49464;SDS011;35358;49.342;8.802;2022-11-06T04:51:24;39.70;;;6.68;;
49464;SDS011;35358;49.342;8.802;2022-11-06T04:53:55;35.13;;;6.50;;
49464;SDS011;35358;49.342;8.802;2022-11-06T04:56:31;45.65;;;7.40;;
49464;SDS011;35358;49.342;8.802;2022-11-06T05:01:30;44.08;;;6.00;;
49464;SDS011;35358;49.342;8.802;2022-11-06T05:03:55;36.55;;;6.63;;
49464;SDS011;35358;49.342;8.802;2022-11-06T05:06:24;32.67;;;8.48;;
49464;SDS011;35358;49.342;8.802;2022-11-06T05:08:52;28.42;;;5.78;;
49464;SDS011;35358;49.342;8.802;2022-11-06T05:11:17;26.20;;;6.15;;
49464;SDS011;35358;49.342;8.802;2022-11-06T05:13:45;9.63;;;6.82;;
49464;SDS011;35358;49.342;8.802;2022-11-06T05:16:16;9.32;;;6.55;;
49464;SDS011;35358;49.342;8.802;2022-11-06T05:18:41;17.45;;;6.63;;
49464;SDS011;35358;49.342;8.802;2022-11-06T05:21:09;17.50;;;6.10;;
49464;SDS011;35358;49.342;8.802;2022-11-06T05:23:54;16.05;;;6.38;;
49464;SDS011;35358;49.342;8.802;2022-11-06T05:26:19;12.38;;;6.43;;
49464;SDS011;35358;49.342;8.802;2022-11-06T05:28:47;15.10;;;6.80;;
49464;SDS011;35358;49.342;8.802;2022-11-06T05:31:15;18.10;;;6.13;;
49464;SDS011;35358;49.342;8.802;2022-11-06T05:33:40;22.73;;;6.57;;
49464;SDS011;35358;49.342;8.802;2022-11-06T05:36:06;19.80;;;6.30;;
49464;SDS011;35358;49.342;8.802;2022-11-06T05:38:34;10.52;;;6.00;;
49464;SDS011;35358;49.342;8.802;2022-11-06T05:41:02;59.40;;;6.85;;
49464;SDS011;35358;49.342;8.802;2022-11-06T05:43:30;62.05;;;7.60;;
49464;SDS011;35358;49.342;8.802;2022-11-06T05:45:55;92.50;;;8.68;;
49464;SDS011;35358;49.342;8.802;2022-11-06T05:48:24;102.20;;;8.55;;
49464;SDS011;35358;49.342;8.802;2022-11-06T05:50:50;98.07;;;11.75;;
49464;SDS011;35358;49.342;8.802;2022-11-06T05:53:24;106.63;;;12.30;;
49464;SDS011;35358;49.342;8.802;2022-11-06T05:55:50;90.43;;;10.82;;
49464;SDS011;35358;49.342;8.802;2022-11-06T05:58:15;116.88;;;11.38;;
49464;SDS011;35358;49.342;8.802;2022-11-06T06:00:43;81.15;;;9.77;;
49464;SDS011;35358;49.342;8.802;2022-11-06T06:03:11;116.10;;;13.95;;
49464;SDS011;35358;49.342;8.802;2022-11-06T06:05:39;58.88;;;10.20;;
49464;SDS011;35358;49.342;8.802;2022-11-06T06:08:05;88.25;;;10.48;;
49464;SDS011;35358;49.342;8.802;2022-11-06T06:10:30;104.63;;;11.30;;
49464;SDS011;35358;49.342;8.802;2022-11-06T06:12:58;81.57;;;10.32;;
49464;SDS011;35358;49.342;8.802;2022-11-06T06:15:24;104.72;;;12.23;;
49464;SDS011;35358;49.342;8.802;2022-11-06T06:17:49;128.52;;;11.52;;
49464;SDS011;35358;49.342;8.802;2022-11-06T06:20:15;99.00;;;11.80;;
49464;SDS011;35358;49.342;8.802;2022-11-06T06:22:43;44.70;;;9.85;;
49464;SDS011;35358;49.342;8.802;2022-11-06T06:25:16;57.60;;;8.25;;
49464;SDS011;35358;49.342;8.802;2022-11-06T06:27:44;85.75;;;10.82;;
49464;SDS011;35358;49.342;8.802;2022-11-06T06:30:09;80.75;;;8.63;;
49464;SDS011;35358;49.342;8.802;2022-11-06T06:32:35;42.80;;;7.50;;
49464;SDS011;35358;49.342;8.802;2022-11-06T06:35:01;56.75;;;7.97;;
49464;SDS011;35358;49.342;8.802;2022-11-06T06:37:29;71.60;;;8.63;;
49464;SDS011;35358;49.342;8.802;2022-11-06T06:39:57;78.63;;;9.20;;
49464;SDS011;35358;49.342;8.802;2022-11-06T06:42:22;61.30;;;8.38;;
49464;SDS011;35358;49.342;8.802;2022-11-06T06:44:48;44.38;;;11.75;;
49464;SDS011;35358;49.342;8.802;2022-11-06T06:47:15;63.60;;;9.77;;
49464;SDS011;35358;49.342;8.802;2022-11-06T06:49:42;43.83;;;9.68;;
49464;SDS011;35358;49.342;8.802;2022-11-06T06:52:10;55.50;;;17.65;;
49464;SDS011;35358;49.342;8.802;2022-11-06T06:54:38;54.72;;;18.00;;
49464;SDS011;35358;49.342;8.802;2022-11-06T06:57:05;32.15;;;11.45;;
49464;SDS011;35358;49.342;8.802;2022-11-06T06:59:33;29.30;;;11.20;;
49464;SDS011;35358;49.342;8.802;2022-11-06T07:01:59;39.85;;;10.93;;
49464;SDS011;35358;49.342;8.802;2022-11-06T07:04:28;38.28;;;11.80;;
49464;SDS011;35358;49.342;8.802;2022-11-06T07:06:53;30.98;;;12.20;;
49464;SDS011;35358;49.342;8.802;2022-11-06T07:09:20;31.85;;;13.10;;
49464;SDS011;35358;49.342;8.802;2022-11-06T07:11:47;22.83;;;13.68;;
49464;SDS011;35358;49.342;8.802;2022-11-06T07:14:15;20.67;;;13.32;;
49464;SDS011;35358;49.342;8.802;2022-11-06T07:16:43;31.08;;;12.38;;
49464;SDS011;35358;49.342;8.802;2022-11-06T07:19:09;28.65;;;13.77;;
49464;SDS011;35358;49.342;8.802;2022-11-06T07:21:34;22.52;;;13.15;;
49464;SDS011;35358;49.342;8.802;2022-11-06T07:24:00;21.92;;;12.45;;
49464;SDS011;35358;49.342;8.802;2022-11-06T07:26:28;25.15;;;14.63;;
49464;SDS011;35358;49.342;8.802;2022-11-06T07:28:53;21.63;;;13.23;;
49464;SDS011;35358;49.342;8.802;2022-11-06T07:31:21;17.52;;;12.15;;
49464;SDS011;35358;49.342;8.802;2022-11-06T07:33:46;19.63;;;13.75;;
49464;SDS011;35358;49.342;8.802;2022-11-06T07:36:12;19.45;;;12.88;;
49464;SDS011;35358;49.342;8.802;2022-11-06T07:38:41;21.00;;;12.90;;
49464;SDS011;35358;49.342;8.802;2022-11-06T07:41:11;17.15;;;12.23;;
49464;SDS011;35358;49.342;8.802;2022-11-06T07:43:40;20.55;;;13.13;;
49464;SDS011;35358;49.342;8.802;2022-11-06T07:46:07;18.77;;;12.68;;
49464;SDS011;35358;49.342;8.802;2022-11-06T07:48:36;18.58;;;12.57;;
49464;SDS011;35358;49.342;8.802;2022-11-06T07:51:05;19.90;;;12.93;;
49464;SDS011;35358;49.342;8.802;2022-11-06T07:53:34;18.67;;;13.55;;
49464;SDS011;35358;49.342;8.802;2022-11-06T07:56:06;19.17;;;12.03;;
49464;SDS011;35358;49.342;8.802;2022-11-06T07:58:32;18.45;;;12.15;;
49464;SDS011;35358;49.342;8.802;2022-11-06T08:00:58;16.52;;;11.48;;
49464;SDS011;35358;49.342;8.802;2022-11-06T08:03:24;16.30;;;10.63;;
49464;SDS011;35358;49.342;8.802;2022-11-06T08:05:53;15.05;;;9.98;;
49464;SDS011;35358;49.342;8.802;2022-11-06T08:08:23;15.52;;;10.98;;
49464;SDS011;35358;49.342;8.802;2022-11-06T08:10:48;19.65;;;11.35;;
49464;SDS011;35358;49.342;8.802;2022-11-06T08:13:16;17.67;;;10.75;;
49464;SDS011;35358;49.342;8.802;2022-11-06T08:15:44;13.10;;;9.43;;
49464;SDS011;35358;49.342;8.802;2022-11-06T08:18:10;18.10;;;10.48;;
49464;SDS011;35358;49.342;8.802;2022-11-06T08:20:38;13.52;;;9.95;;
49464;SDS011;35358;49.342;8.802;2022-11-06T08:23:09;16.52;;;9.35;;
49464;SDS011;35358;49.342;8.802;2022-11-06T08:25:38;12.40;;;8.90;;
49464;SDS011;35358;49.342;8.802;2022-11-06T08:28:09;13.27;;;9.32;;
49464;SDS011;35358;49.342;8.802;2022-11-06T08:30:35;14.57;;;10.27;;
49464;SDS011;35358;49.342;8.802;2022-11-06T08:33:02;14.55;;;9.68;;
49464;SDS011;35358;49.342;8.802;2022-11-06T08:35:29;15.95;;;10.00;;
49464;SDS011;35358;49.342;8.802;2022-11-06T08:37:58;11.67;;;9.70;;
49464;SDS011;35358;49.342;8.802;2022-11-06T08:40:26;15.10;;;9.82;;
49464;SDS011;35358;49.342;8.802;2022-11-06T08:42:51;16.02;;;10.20;;
49464;SDS011;35358;49.342;8.802;2022-11-06T08:45:22;13.63;;;10.13;;
49464;SDS011;35358;49.342;8.802;2022-11-06T08:47:47;13.43;;;8.98;;
49464;SDS011;35358;49.342;8.802;2022-11-06T08:50:13;14.18;;;10.48;;
49464;SDS011;35358;49.342;8.802;2022-11-06T08:52:38;15.65;;;10.50;;
49464;SDS011;35358;49.342;8.802;2022-11-06T08:55:04;14.40;;;10.55;;
49464;SDS011;35358;49.342;8.802;2022-11-06T08:57:32;13.20;;;9.38;;
49464;SDS011;35358;49.342;8.802;2022-11-06T09:00:00;13.95;;;10.27;;
49464;SDS011;35358;49.342;8.802;2022-11-06T09:02:25;15.95;;;9.40;;
49464;SDS011;35358;49.342;8.802;2022-11-06T09:04:51;14.55;;;10.50;;
49464;SDS011;35358;49.342;8.802;2022-11-06T09:07:16;16.27;;;9.73;;
49464;SDS011;35358;49.342;8.802;2022-11-06T09:09:44;14.52;;;9.85;;
49464;SDS011;35358;49.342;8.802;2022-11-06T09:12:12;13.00;;;9.60;;
49464;SDS011;35358;49.342;8.802;2022-11-06T09:14:38;14.23;;;9.27;;
49464;SDS011;35358;49.342;8.802;2022-11-06T09:17:06;11.98;;;9.48;;
49464;SDS011;35358;49.342;8.802;2022-11-06T09:19:31;12.65;;;8.88;;
49464;SDS011;35358;49.342;8.802;2022-11-06T09:21:57;12.80;;;8.85;;
49464;SDS011;35358;49.342;8.802;2022-11-06T09:24:25;16.33;;;10.02;;
49464;SDS011;35358;49.342;8.802;2022-11-06T09:26:53;15.50;;;10.40;;
49464;SDS011;35358;49.342;8.802;2022-11-06T09:29:21;16.20;;;10.43;;
49464;SDS011;35358;49.342;8.802;2022-11-06T09:31:51;32.67;;;17.48;;
49464;SDS011;35358;49.342;8.802;2022-11-06T09:34:18;11.82;;;9.23;;
49464;SDS011;35358;49.342;8.802;2022-11-06T09:36:46;10.20;;;7.93;;
49464;SDS011;35358;49.342;8.802;2022-11-06T09:39:14;15.52;;;8.77;;
49464;SDS011;35358;49.342;8.802;2022-11-06T09:41:44;10.77;;;8.30;;
49464;SDS011;35358;49.342;8.802;2022-11-06T09:46:53;9.82;;;7.78;;
49464;SDS011;35358;49.342;8.802;2022-11-06T09:52:05;11.93;;;7.00;;
49464;SDS011;35358;49.342;8.802;2022-11-06T09:54:52;10.25;;;7.30;;
49464;SDS011;35358;49.342;8.802;2022-11-06T09:57:32;10.65;;;7.70;;
49464;SDS011;35358;49.342;8.802;2022-11-06T10:00:03;12.07;;;8.35;;
49464;SDS011;35358;49.342;8.802;2022-11-06T10:02:32;8.77;;;6.95;;
49464;SDS011;35358;49.342;8.802;2022-11-06T10:07:37;9.30;;;7.03;;
49464;SDS011;35358;49.342;8.802;2022-11-06T10:10:07;8.25;;;6.80;;
49464;SDS011;35358;49.342;8.802;2022-11-06T10:15:27;8.35;;;6.65;;
49464;SDS011;35358;49.342;8.802;2022-11-06T10:21:05;9.88;;;6.65;;
49464;SDS011;35358;49.342;8.802;2022-11-06T10:26:27;15.45;;;8.57;;
49464;SDS011;35358;49.342;8.802;2022-11-06T10:34:57;10.02;;;7.05;;
49464;SDS011;35358;49.342;8.802;2022-11-06T10:37:38;8.32;;;6.35;;
49464;SDS011;35358;49.342;8.802;2022-11-06T10:40:18;7.68;;;6.15;;
49464;SDS011;35358;49.342;8.802;2022-11-06T10:43:00;8.73;;;6.85;;
49464;SDS011;35358;49.342;8.802;2022-11-06T10:45:30;7.75;;;6.18;;
49464;SDS011;35358;49.342;8.802;2022-11-06T10:48:01;8.80;;;6.35;;
49464;SDS011;35358;49.342;8.802;2022-11-06T10:50:49;7.95;;;6.10;;
49464;SDS011;35358;49.342;8.802;2022-11-06T10:56:19;7.35;;;5.57;;
49464;SDS011;35358;49.342;8.802;2022-11-06T10:59:25;9.48;;;5.85;;
49464;SDS011;35358;49.342;8.802;2022-11-06T11:01:52;8.05;;;5.70;;
49464;SDS011;35358;49.342;8.802;2022-11-06T11:04:18;8.13;;;6.28;;
49464;SDS011;35358;49.342;8.802;2022-11-06T11:06:46;8.02;;;5.28;;
49464;SDS011;35358;49.342;8.802;2022-11-06T11:09:31;6.70;;;4.85;;
49464;SDS011;35358;49.342;8.802;2022-11-06T11:11:59;7.93;;;5.32;;
49464;SDS011;35358;49.342;8.802;2022-11-06T11:14:28;7.55;;;5.07;;
49464;SDS011;35358;49.342;8.802;2022-11-06T11:16:57;8.30;;;5.63;;
49464;SDS011;35358;49.342;8.802;2022-11-06T11:19:26;8.55;;;5.57;;
49464;SDS011;35358;49.342;8.802;2022-11-06T11:21:57;8.88;;;5.03;;
49464;SDS011;35358;49.342;8.802;2022-11-06T11:24:25;8.55;;;5.15;;
49464;SDS011;35358;49.342;8.802;2022-11-06T11:26:52;7.57;;;5.32;;
49464;SDS011;35358;49.342;8.802;2022-11-06T11:29:43;7.40;;;4.97;;
49464;SDS011;35358;49.342;8.802;2022-11-06T11:32:15;6.05;;;4.68;;
49464;SDS011;35358;49.342;8.802;2022-11-06T11:34:43;5.78;;;4.85;;
49464;SDS011;35358;49.342;8.802;2022-11-06T11:37:20;8.25;;;5.47;;
49464;SDS011;35358;49.342;8.802;2022-11-06T11:39:52;8.25;;;5.40;;
49464;SDS011;35358;49.342;8.802;2022-11-06T11:47:39;7.97;;;5.45;;
49464;SDS011;35358;49.342;8.802;2022-11-06T11:50:16;6.43;;;4.95;;
49464;SDS011;35358;49.342;8.802;2022-11-06T11:52:46;8.00;;;4.65;;
49464;SDS011;35358;49.342;8.802;2022-11-06T11:55:17;7.97;;;4.68;;
49464;SDS011;35358;49.342;8.802;2022-11-06T11:57:46;6.63;;;5.13;;
49464;SDS011;35358;49.342;8.802;2022-11-06T12:00:15;8.48;;;5.53;;
49464;SDS011;35358;49.342;8.802;2022-11-06T12:02:43;6.78;;;4.70;;
49464;SDS011;35358;49.342;8.802;2022-11-06T12:05:21;6.55;;;5.28;;
49464;SDS011;35358;49.342;8.802;2022-11-06T12:08:00;6.65;;;5.18;;
49464;SDS011;35358;49.342;8.802;2022-11-06T12:10:41;7.45;;;5.55;;
49464;SDS011;35358;49.342;8.802;2022-11-06T12:13:15;9.07;;;4.88;;
49464;SDS011;35358;49.342;8.802;2022-11-06T12:15:49;10.73;;;6.70;;
49464;SDS011;35358;49.342;8.802;2022-11-06T12:18:44;6.68;;;5.03;;
49464;SDS011;35358;49.342;8.802;2022-11-06T12:26:56;9.45;;;6.53;;
49464;SDS011;35358;49.342;8.802;2022-11-06T12:35:12;7.28;;;5.15;;
49464;SDS011;35358;49.342;8.802;2022-11-06T12:40:27;5.43;;;4.38;;
49464;SDS011;35358;49.342;8.802;2022-11-06T13:04:53;6.45;;;4.40;;
49464;SDS011;35358;49.342;8.802;2022-11-06T13:19:40;6.55;;;3.88;;
49464;SDS011;35358;49.342;8.802;2022-11-06T13:22:18;7.00;;;4.57;;
49464;SDS011;35358;49.342;8.802;2022-11-06T13:32:58;7.72;;;4.93;;
49464;SDS011;35358;49.342;8.802;2022-11-06T13:35:27;7.47;;;5.05;;
49464;SDS011;35358;49.342;8.802;2022-11-06T13:37:54;6.50;;;5.20;;
49464;SDS011;35358;49.342;8.802;2022-11-06T13:40:39;7.00;;;4.97;;
49464;SDS011;35358;49.342;8.802;2022-11-06T13:43:11;7.95;;;5.70;;
49464;SDS011;35358;49.342;8.802;2022-11-06T13:48:28;7.00;;;5.20;;
49464;SDS011;35358;49.342;8.802;2022-11-06T13:51:15;7.32;;;5.80;;
49464;SDS011;35358;49.342;8.802;2022-11-06T13:56:57;7.90;;;5.38;;
49464;SDS011;35358;49.342;8.802;2022-11-06T14:08:11;7.83;;;5.90;;
49464;SDS011;35358;49.342;8.802;2022-11-06T14:11:02;7.20;;;5.65;;
49464;SDS011;35358;49.342;8.802;2022-11-06T14:13:33;8.30;;;5.70;;
49464;SDS011;35358;49.342;8.802;2022-11-06T14:16:01;6.50;;;5.10;;
49464;SDS011;35358;49.342;8.802;2022-11-06T14:18:52;5.90;;;5.03;;
49464;SDS011;35358;49.342;8.802;2022-11-06T14:24:12;6.40;;;5.03;;
49464;SDS011;35358;49.342;8.802;2022-11-06T14:34:36;9.35;;;5.00;;
49464;SDS011;35358;49.342;8.802;2022-11-06T14:42:16;5.57;;;4.82;;
49464;SDS011;35358;49.342;8.802;2022-11-06T14:44:57;7.20;;;4.70;;
49464;SDS011;35358;49.342;8.802;2022-11-06T14:52:57;5.70;;;4.38;;
49464;SDS011;35358;49.342;8.802;2022-11-06T15:00:52;6.30;;;5.07;;
49464;SDS011;35358;49.342;8.802;2022-11-06T15:05:52;5.90;;;4.53;;
49464;SDS011;35358;49.342;8.802;2022-11-06T15:16:24;5.70;;;4.32;;
49464;SDS011;35358;49.342;8.802;2022-11-06T15:19:05;5.47;;;4.00;;
49464;SDS011;35358;49.342;8.802;2022-11-06T15:21:41;5.90;;;4.30;;
49464;SDS011;35358;49.342;8.802;2022-11-06T15:24:14;5.05;;;4.25;;
49464;SDS011;35358;49.342;8.802;2022-11-06T15:26:49;5.05;;;3.90;;
49464;SDS011;35358;49.342;8.802;2022-11-06T15:31:57;4.25;;;3.40;;
49464;SDS011;35358;49.342;8.802;2022-11-06T15:34:36;5.72;;;4.38;;
49464;SDS011;35358;49.342;8.802;2022-11-06T15:37:19;5.18;;;3.88;;
49464;SDS011;35358;49.342;8.802;2022-11-06T15:39:51;6.20;;;4.20;;
49464;SDS011;35358;49.342;8.802;2022-11-06T15:42:20;5.38;;;4.03;;
49464;SDS011;35358;49.342;8.802;2022-11-06T15:44:48;5.00;;;3.33;;
49464;SDS011;35358;49.342;8.802;2022-11-06T15:52:46;3.72;;;2.90;;
49464;SDS011;35358;49.342;8.802;2022-11-06T15:55:29;3.58;;;3.05;;
49464;SDS011;35358;49.342;8.802;2022-11-06T15:58:06;3.72;;;3.20;;
49464;SDS011;35358;49.342;8.802;2022-11-06T16:00:41;6.20;;;3.28;;
49464;SDS011;35358;49.342;8.802;2022-11-06T16:03:12;3.45;;;2.65;;
49464;SDS011;35358;49.342;8.802;2022-11-06T16:05:40;2.65;;;2.10;;
49464;SDS011;35358;49.342;8.802;2022-11-06T16:08:09;3.65;;;2.00;;
49464;SDS011;35358;49.342;8.802;2022-11-06T16:10:44;3.22;;;2.70;;
49464;SDS011;35358;49.342;8.802;2022-11-06T16:13:13;2.95;;;2.55;;
49464;SDS011;35358;49.342;8.802;2022-11-06T16:15:47;2.58;;;2.33;;
49464;SDS011;35358;49.342;8.802;2022-11-06T16:20:47;3.10;;;1.90;;
49464;SDS011;35358;49.342;8.802;2022-11-06T16:23:23;2.78;;;1.52;;
49464;SDS011;35358;49.342;8.802;2022-11-06T16:26:03;2.33;;;2.00;;
49464;SDS011;35358;49.342;8.802;2022-11-06T16:28:36;3.50;;;2.30;;
49464;SDS011;35358;49.342;8.802;2022-11-06T16:31:09;6.07;;;5.25;;
49464;SDS011;35358;49.342;8.802;2022-11-06T16:34:00;3.70;;;3.13;;
49464;SDS011;35358;49.342;8.802;2022-11-06T16:36:47;3.83;;;3.05;;
49464;SDS011;35358;49.342;8.802;2022-11-06T16:52:31;7.80;;;6.03;;
49464;SDS011;35358;49.342;8.802;2022-11-06T16:57:42;5.70;;;5.10;;
49464;SDS011;35358;49.342;8.802;2022-11-06T17:03:01;5.75;;;4.85;;
49464;SDS011;35358;49.342;8.802;2022-11-06T17:05:28;6.65;;;5.15;;
49464;SDS011;35358;49.342;8.802;2022-11-06T17:10:38;6.07;;;4.72;;
49464;SDS011;35358;49.342;8.802;2022-11-06T17:13:18;6.15;;;5.20;;
49464;SDS011;35358;49.342;8.802;2022-11-06T17:15:54;6.07;;;5.40;;
49464;SDS011;35358;49.342;8.802;2022-11-06T17:18:28;8.93;;;6.15;;
49464;SDS011;35358;49.342;8.802;2022-11-06T17:20:57;6.85;;;5.25;;
49464;SDS011;35358;49.342;8.802;2022-11-06T17:23:30;5.75;;;3.53;;
49464;SDS011;35358;49.342;8.802;2022-11-06T17:26:05;5.28;;;4.35;;
49464;SDS011;35358;49.342;8.802;2022-11-06T17:28:35;6.15;;;4.95;;
49464;SDS011;35358;49.342;8.802;2022-11-06T17:31:10;5.15;;;4.65;;
49464;SDS011;35358;49.342;8.802;2022-11-06T17:33:39;4.45;;;3.00;;
49464;SDS011;35358;49.342;8.802;2022-11-06T17:36:14;2.90;;;2.60;;
49464;SDS011;35358;49.342;8.802;2022-11-06T17:38:44;3.25;;;2.60;;
49464;SDS011;35358;49.342;8.802;2022-11-06T17:41:11;3.40;;;2.40;;
49464;SDS011;35358;49.342;8.802;2022-11-06T17:43:37;3.65;;;2.15;;
49464;SDS011;35358;49.342;8.802;2022-11-06T17:46:03;3.60;;;2.05;;
49464;SDS011;35358;49.342;8.802;2022-11-06T17:48:33;3.42;;;2.72;;
49464;SDS011;35358;49.342;8.802;2022-11-06T17:51:01;2.70;;;1.92;;
49464;SDS011;35358;49.342;8.802;2022-11-06T17:53:46;3.30;;;2.40;;
49464;SDS011;35358;49.342;8.802;2022-11-06T17:56:12;3.78;;;2.60;;
49464;SDS011;35358;49.342;8.802;2022-11-06T17:58:38;3.58;;;2.85;;
49464;SDS011;35358;49.342;8.802;2022-11-06T18:01:07;4.43;;;3.47;;
49464;SDS011;35358;49.342;8.802;2022-11-06T18:03:35;10.73;;;6.07;;
49464;SDS011;35358;49.342;8.802;2022-11-06T18:06:10;14.55;;;7.72;;
49464;SDS011;35358;49.342;8.802;2022-11-06T18:11:03;10.32;;;6.00;;
49464;SDS011;35358;49.342;8.802;2022-11-06T18:13:29;10.68;;;6.90;;
49464;SDS011;35358;49.342;8.802;2022-11-06T18:15:55;8.73;;;5.80;;
49464;SDS011;35358;49.342;8.802;2022-11-06T18:18:21;10.50;;;6.18;;
49464;SDS011;35358;49.342;8.802;2022-11-06T18:20:49;9.35;;;6.32;;
49464;SDS011;35358;49.342;8.802;2022-11-06T18:23:17;9.93;;;6.45;;
49464;SDS011;35358;49.342;8.802;2022-11-06T18:25:42;10.55;;;6.53;;
49464;SDS011;35358;49.342;8.802;2022-11-06T18:28:16;7.05;;;5.00;;
49464;SDS011;35358;49.342;8.802;2022-11-06T18:30:42;9.48;;;8.48;;
49464;SDS011;35358;49.342;8.802;2022-11-06T18:33:09;10.95;;;8.25;;
49464;SDS011;35358;49.342;8.802;2022-11-06T18:35:37;8.82;;;7.03;;
49464;SDS011;35358;49.342;8.802;2022-11-06T18:38:03;10.80;;;8.10;;